Time;durP1;ratioP1;P1;durP2;ratioP2;P2;SDS_P1;SDS_P2;PMS_P1;PMS_P2;Temp;Humidity;BMP_temperature;BMP_pressure;BME280_temperature;BME280_humidity;BME280_pressure;Samples;Min_cycle;Max_cycle;Signal;HPM_P1;HPM_P2
2020/12/15 00:02:00;;;;;;;7.27;4.50;;;;;;;5.95;76.62;96303.00;5011730;28;20202;-73
2020/12/15 00:04:28;;;;;;;5.70;5.10;;;;;;;5.94;76.11;96308.41;5012155;28;20175;-73
2020/12/15 00:06:53;;;;;;;7.33;5.63;;;;;;;5.96;76.16;96306.41;5011389;28;20298;-73
2020/12/15 00:09:19;;;;;;;6.33;4.47;;;;;;;6.00;75.62;96297.16;4995019;28;20274;-73
2020/12/15 00:11:44;;;;;;;6.27;4.50;;;;;;;6.02;74.90;96297.78;5011611;28;20194;-73
2020/12/15 00:14:10;;;;;;;6.30;4.07;;;;;;;6.03;73.54;96304.53;5012199;28;20191;-73
2020/12/15 00:16:35;;;;;;;6.07;4.50;;;;;;;6.08;73.43;96308.09;5018286;28;20731;-73
2020/12/15 00:19:01;;;;;;;7.67;4.70;;;;;;;6.09;73.68;96308.91;5011935;28;20667;-73
2020/12/15 00:21:28;;;;;;;5.20;4.17;;;;;;;6.06;73.89;96311.94;5012066;28;20203;-73
2020/12/15 00:23:54;;;;;;;5.83;4.70;;;;;;;6.07;74.22;96313.53;5011004;28;20357;-74
2020/12/15 00:26:21;;;;;;;5.07;4.27;;;;;;;6.17;74.15;96317.28;5011522;28;20731;-73
2020/12/15 00:28:50;;;;;;;10.87;4.50;;;;;;;6.20;74.34;96309.03;5010886;28;20710;-73
2020/12/15 00:31:16;;;;;;;4.90;4.40;;;;;;;6.15;74.69;96313.28;5011697;28;20687;-73
2020/12/15 00:33:42;;;;;;;7.57;4.73;;;;;;;6.15;74.84;96311.47;5010840;28;20187;-73
2020/12/15 00:36:08;;;;;;;5.53;4.67;;;;;;;5.97;74.87;96315.78;5011701;28;20603;-73
2020/12/15 00:38:33;;;;;;;6.13;4.57;;;;;;;5.97;75.87;96307.97;5025867;28;20184;-73
2020/12/15 00:40:58;;;;;;;5.30;4.57;;;;;;;6.08;75.31;96304.72;5011658;28;20270;-73
2020/12/15 00:43:24;;;;;;;6.93;4.67;;;;;;;5.97;75.89;96303.56;5018707;28;20183;-73
2020/12/15 00:45:49;;;;;;;5.63;4.47;;;;;;;5.99;76.11;96300.78;5010829;28;20463;-73
2020/12/15 00:48:15;;;;;;;6.80;4.43;;;;;;;5.96;75.98;96296.81;5011310;28;20183;-73
2020/12/15 00:50:40;;;;;;;7.53;4.97;;;;;;;6.04;75.41;96299.13;5010427;28;20550;-73
2020/12/15 00:53:06;;;;;;;4.87;4.10;;;;;;;6.07;74.82;96298.72;5015154;28;20186;-73
2020/12/15 00:55:32;;;;;;;4.83;4.00;;;;;;;5.95;75.65;96294.41;5011280;28;20191;-73
2020/12/15 00:57:57;;;;;;;12.57;4.50;;;;;;;5.97;75.35;96292.38;5011803;28;20171;-73
2020/12/15 01:00:23;;;;;;;4.93;4.13;;;;;;;6.00;76.14;96292.78;5011528;28;20219;-73
2020/12/15 01:02:48;;;;;;;6.77;4.60;;;;;;;6.13;75.21;96295.25;5023329;28;20190;-73
2020/12/15 01:05:14;;;;;;;9.13;5.13;;;;;;;6.14;75.63;96296.06;5011565;28;20195;-73
2020/12/15 01:07:40;;;;;;;5.77;4.40;;;;;;;6.02;75.62;96302.97;5010933;28;20214;-73
2020/12/15 01:10:06;;;;;;;6.00;4.97;;;;;;;6.15;75.65;96302.88;5011137;28;20187;-73
2020/12/15 01:12:31;;;;;;;6.63;4.83;;;;;;;6.18;75.10;96299.88;5010367;28;20192;-73
2020/12/15 01:14:57;;;;;;;5.60;4.70;;;;;;;6.03;75.57;96301.94;5013652;28;20187;-73
2020/12/15 01:17:22;;;;;;;7.70;4.90;;;;;;;5.91;75.96;96299.22;5011573;28;20194;-73
2020/12/15 01:19:48;;;;;;;6.10;4.33;;;;;;;5.85;76.83;96293.00;5011537;28;20782;-72
2020/12/15 01:22:13;;;;;;;7.00;5.40;;;;;;;5.86;76.29;96294.59;5014871;28;20231;-73
2020/12/15 01:24:39;;;;;;;6.30;5.20;;;;;;;5.78;77.33;96307.06;5014479;28;20183;-73
2020/12/15 01:27:04;;;;;;;6.00;5.37;;;;;;;5.99;76.15;96306.78;5022367;28;20199;-73
2020/12/15 01:29:30;;;;;;;6.63;5.27;;;;;;;6.16;75.06;96305.28;5014813;28;20195;-72
2020/12/15 01:31:55;;;;;;;6.63;4.90;;;;;;;5.86;75.33;96301.59;5013408;28;20509;-72
2020/12/15 01:34:21;;;;;;;5.67;5.10;;;;;;;6.00;75.20;96303.16;5014987;28;20210;-72
2020/12/15 01:36:47;;;;;;;6.03;5.00;;;;;;;6.00;75.51;96312.78;5014160;28;20191;-72
2020/12/15 01:39:12;;;;;;;6.37;4.97;;;;;;;5.96;75.91;96309.81;5014822;28;20259;-73
2020/12/15 01:41:38;;;;;;;8.40;5.03;;;;;;;5.98;75.93;96314.78;5014460;28;20272;-72
2020/12/15 01:44:05;;;;;;;7.77;5.43;;;;;;;5.97;75.65;96311.38;5015203;28;20262;-72
2020/12/15 01:46:32;;;;;;;6.20;5.20;;;;;;;6.14;74.15;96314.28;5014453;28;20289;-72
2020/12/15 01:48:58;;;;;;;5.23;4.60;;;;;;;6.12;75.46;96316.31;5014588;28;20184;-72
2020/12/15 01:51:28;;;;;;;6.97;5.73;;;;;;;6.11;75.17;96305.09;5014808;28;20195;-71
2020/12/15 01:53:54;;;;;;;6.67;4.33;;;;;;;6.09;74.36;96303.69;5014120;28;20194;-71
2020/12/15 01:56:21;;;;;;;5.20;4.70;;;;;;;6.22;72.74;96307.03;5014549;28;20194;-71
2020/12/15 01:58:52;;;;;;;6.40;3.83;;;;;;;6.21;70.94;96305.44;5013477;28;20329;-71
2020/12/15 02:01:18;;;;;;;3.80;3.40;;;;;;;6.10;70.69;96305.31;5014607;28;20175;-72
2020/12/15 02:03:44;;;;;;;4.87;3.60;;;;;;;6.25;69.94;96298.78;5013759;28;20671;-72
2020/12/15 02:06:09;;;;;;;3.90;3.40;;;;;;;6.39;69.25;96307.31;5013243;28;20199;-71
2020/12/15 02:08:35;;;;;;;5.53;3.37;;;;;;;6.31;69.55;96302.34;4996468;28;20546;-72
2020/12/15 02:11:02;;;;;;;4.93;3.63;;;;;;;6.31;69.97;96304.16;5014210;28;20188;-71
2020/12/15 02:13:27;;;;;;;4.70;3.60;;;;;;;6.49;69.04;96312.03;5014467;28;20193;-72
2020/12/15 02:15:53;;;;;;;3.67;3.10;;;;;;;6.51;68.73;96303.03;5014173;28;20545;-71
2020/12/15 02:18:18;;;;;;;5.10;3.20;;;;;;;6.45;68.26;96305.66;5015974;28;20229;-71
2020/12/15 02:20:44;;;;;;;3.73;3.00;;;;;;;6.43;67.63;96299.88;5013483;28;20608;-72
2020/12/15 02:23:10;;;;;;;4.43;3.10;;;;;;;6.43;67.97;96298.06;5013941;28;20231;-72
2020/12/15 02:25:35;;;;;;;4.53;3.23;;;;;;;6.57;68.00;96299.56;5013643;28;20222;-73
2020/12/15 02:28:01;;;;;;;3.77;3.20;;;;;;;6.51;67.42;96297.81;5013303;28;20187;-72
2020/12/15 02:30:26;;;;;;;4.10;2.73;;;;;;;6.54;67.21;96304.38;5015105;28;20189;-72
2020/12/15 02:32:52;;;;;;;3.40;3.10;;;;;;;6.41;67.67;96292.25;5013075;28;20266;-72
2020/12/15 02:35:17;;;;;;;4.80;3.27;;;;;;;6.41;67.52;96294.88;5013590;28;20258;-72
2020/12/15 02:37:42;;;;;;;4.57;3.13;;;;;;;6.48;67.71;96287.81;5012840;28;20266;-73
2020/12/15 02:40:08;;;;;;;4.17;3.20;;;;;;;6.38;67.95;96291.91;5013412;28;20206;-72
2020/12/15 02:42:33;;;;;;;3.67;3.00;;;;;;;6.40;67.99;96285.47;5012991;28;20226;-72
2020/12/15 02:45:00;;;;;;;3.87;2.90;;;;;;;6.52;67.34;96288.19;5014038;28;20687;-72
2020/12/15 02:47:26;;;;;;;3.43;2.93;;;;;;;6.58;67.48;96282.09;5013011;28;20702;-72
2020/12/15 02:49:51;;;;;;;4.53;3.03;;;;;;;6.67;67.11;96279.03;5013511;28;20222;-73
2020/12/15 02:52:19;;;;;;;3.33;2.80;;;;;;;6.65;67.35;96273.25;5013183;28;20192;-72
2020/12/15 02:54:46;;;;;;;4.20;3.40;;;;;;;6.68;67.66;96274.63;5012915;28;20187;-74
2020/12/15 02:57:11;;;;;;;3.87;3.30;;;;;;;6.78;68.46;96261.91;5013095;28;20555;-74
2020/12/15 02:59:36;;;;;;;4.10;3.07;;;;;;;7.05;66.91;96258.03;5012809;28;20206;-74
2020/12/15 03:02:02;;;;;;;3.90;3.23;;;;;;;6.81;68.04;96248.44;5013672;28;20207;-73
2020/12/15 03:04:27;;;;;;;3.73;3.20;;;;;;;6.83;67.75;96240.44;5013756;28;20194;-73
2020/12/15 03:06:52;;;;;;;3.77;2.97;;;;;;;6.77;66.74;96230.88;5012044;28;20207;-74
2020/12/15 03:09:18;;;;;;;3.37;2.90;;;;;;;6.63;67.61;96243.25;5013379;28;20270;-73
2020/12/15 03:11:43;;;;;;;3.53;2.67;;;;;;;6.89;66.99;96279.44;5012343;28;20542;-74
2020/12/15 03:14:09;;;;;;;4.30;3.30;;;;;;;6.94;66.41;96299.63;5013647;28;20175;-74
2020/12/15 03:16:35;;;;;;;5.07;3.30;;;;;;;6.93;66.68;96285.00;5012101;28;20199;-73
2020/12/15 03:19:00;;;;;;;5.70;3.20;;;;;;;6.83;67.54;96288.09;4997132;28;20258;-73
2020/12/15 03:21:27;;;;;;;5.83;4.60;;;;;;;6.78;69.11;96282.75;5013086;28;20183;-74
2020/12/15 03:23:53;;;;;;;8.57;5.43;;;;;;;6.70;71.04;96303.84;5012480;28;20610;-73
2020/12/15 03:26:19;;;;;;;8.47;5.73;;;;;;;6.41;73.50;96287.06;5012719;28;20694;-73
2020/12/15 03:28:44;;;;;;;6.43;5.27;;;;;;;6.18;73.77;96253.03;5011109;28;20191;-73
2020/12/15 03:31:10;;;;;;;7.30;5.53;;;;;;;5.99;75.01;96261.75;5012635;28;20187;-73
2020/12/15 03:33:35;;;;;;;7.93;4.90;;;;;;;5.89;74.93;96245.81;5012163;28;20187;-73
2020/12/15 03:36:01;;;;;;;7.07;4.73;;;;;;;6.05;73.66;96232.31;5012913;28;20270;-73
2020/12/15 03:38:27;;;;;;;6.10;4.80;;;;;;;6.01;74.10;96233.75;5012674;28;20195;-73
2020/12/15 03:40:52;;;;;;;5.97;4.60;;;;;;;6.08;74.01;96234.47;5011904;28;20296;-73
2020/12/15 03:43:18;;;;;;;6.00;5.10;;;;;;;6.13;74.58;96222.41;5025355;28;20190;-73
2020/12/15 03:45:44;;;;;;;8.13;5.80;;;;;;;5.95;75.98;96216.38;5012007;28;20260;-73
2020/12/15 03:48:13;;;;;;;9.40;6.37;;;;;;;6.02;77.24;96212.69;5013200;28;20190;-73
2020/12/15 03:50:39;;;;;;;10.00;6.50;;;;;;;5.47;79.16;96214.22;5011957;28;20197;-73
2020/12/15 03:53:04;;;;;;;7.57;6.17;;;;;;;5.67;79.01;96219.34;5014940;28;20187;-73
2020/12/15 03:55:30;;;;;;;8.17;6.40;;;;;;;5.68;79.66;96241.72;5012244;28;20658;-73
2020/12/15 03:57:55;;;;;;;8.37;5.97;;;;;;;5.71;79.42;96265.50;5012010;28;20194;-73
2020/12/15 04:00:21;;;;;;;7.50;4.97;;;;;;;5.98;76.84;96253.16;5012562;28;20207;-73
2020/12/15 04:02:47;;;;;;;8.33;5.77;;;;;;;6.23;75.55;96261.78;5011401;28;20196;-73
2020/12/15 04:05:13;;;;;;;7.67;5.97;;;;;;;6.00;76.84;96277.16;5012160;28;20270;-75
2020/12/15 04:07:40;;;;;;;9.27;6.67;;;;;;;5.98;77.66;96281.75;5011639;28;20218;-74
2020/12/15 04:10:06;;;;;;;8.30;6.37;;;;;;;5.81;78.24;96283.22;5012582;28;20179;-74
2020/12/15 04:12:31;;;;;;;9.60;6.77;;;;;;;5.70;78.94;96276.91;5011577;28;20194;-73
2020/12/15 04:14:57;;;;;;;9.07;6.40;;;;;;;5.68;79.13;96281.53;5011855;28;20191;-73
2020/12/15 04:17:22;;;;;;;8.13;6.20;;;;;;;5.57;79.15;96289.19;5011882;28;20550;-74
2020/12/15 04:19:47;;;;;;;8.23;6.23;;;;;;;5.62;78.91;96284.94;5011435;28;20203;-73
2020/12/15 04:22:13;;;;;;;7.60;5.67;;;;;;;5.77;77.63;96298.47;5011521;28;20223;-73
2020/12/15 04:24:38;;;;;;;7.93;5.83;;;;;;;5.86;77.31;96292.00;5011502;28;20657;-73
2020/12/15 04:27:04;;;;;;;6.47;5.20;;;;;;;5.81;77.01;96298.84;5012498;28;20226;-73
2020/12/15 04:29:30;;;;;;;8.67;6.10;;;;;;;5.63;77.69;96299.53;5011143;28;20560;-74
2020/12/15 04:31:56;;;;;;;5.93;5.00;;;;;;;6.04;75.21;96287.94;5010150;28;20682;-75
2020/12/15 04:34:21;;;;;;;5.07;4.10;;;;;;;6.17;72.77;96282.66;5011647;28;20188;-72
2020/12/15 04:36:47;;;;;;;4.63;4.17;;;;;;;6.16;72.43;96278.44;5011465;28;20682;-73
2020/12/15 04:39:12;;;;;;;3.80;3.33;;;;;;;6.03;71.58;96273.31;5011362;28;20194;-73
2020/12/15 04:41:38;;;;;;;3.27;2.93;;;;;;;6.22;70.77;96275.00;5010997;28;20187;-74
2020/12/15 04:44:04;;;;;;;4.53;3.30;;;;;;;6.15;71.10;96262.03;5012076;28;20187;-73
2020/12/15 04:46:54;;;;;;;4.07;3.03;;;;;;;6.30;69.84;96259.13;5011114;28;20199;-73
2020/12/15 04:49:25;;;;;;;5.13;3.87;;;;;;;6.55;69.81;96279.94;5011025;28;20202;-72
2020/12/15 04:52:04;;;;;;;6.17;4.20;;;;;;;6.35;71.53;96289.72;5010825;28;20179;-73
2020/12/15 04:54:35;;;;;;;3.60;3.27;;;;;;;6.37;71.37;96298.09;5010873;28;20180;-73
2020/12/15 04:57:02;;;;;;;4.03;3.60;;;;;;;6.39;71.09;96298.72;5011687;28;20184;-73
2020/12/15 04:59:37;;;;;;;3.93;3.40;;;;;;;6.24;71.13;96306.81;5011327;28;20257;-73
2020/12/15 05:02:05;;;;;;;4.47;3.30;;;;;;;6.42;70.27;96303.47;5011755;28;20171;-73
2020/12/15 05:04:41;;;;;;;5.07;3.23;;;;;;;6.45;69.76;96303.06;5011481;28;20194;-73
2020/12/15 05:07:08;;;;;;;3.00;2.63;;;;;;;6.41;69.32;96294.88;5018602;28;20210;-73
2020/12/15 05:09:34;;;;;;;3.17;2.87;;;;;;;6.59;68.87;96301.94;5010493;28;20624;-73
2020/12/15 05:12:01;;;;;;;6.17;2.97;;;;;;;6.39;69.60;96298.72;5012008;28;20592;-73
2020/12/15 05:14:27;;;;;;;4.93;3.20;;;;;;;6.65;68.65;96288.06;5011101;28;20202;-73
2020/12/15 05:16:54;;;;;;;4.07;3.07;;;;;;;6.76;68.71;96286.56;5010036;28;20675;-73
2020/12/15 05:19:19;;;;;;;3.83;3.43;;;;;;;6.57;69.77;96283.94;5010350;28;20597;-73
2020/12/15 05:21:58;;;;;;;4.07;3.57;;;;;;;6.40;70.40;96289.88;5009891;28;20266;-72
2020/12/15 05:24:28;;;;;;;3.73;3.17;;;;;;;6.42;70.37;96285.25;5011022;28;20214;-73
2020/12/15 05:27:01;;;;;;;3.77;3.20;;;;;;;6.38;70.48;96284.09;5010548;28;20203;-73
2020/12/15 05:29:27;;;;;;;6.77;3.80;;;;;;;6.55;71.19;96285.94;5011453;28;20182;-73
2020/12/15 05:31:58;;;;;;;6.50;4.17;;;;;;;6.67;72.11;96286.84;5010500;28;20190;-72
2020/12/15 05:34:26;;;;;;;4.70;4.17;;;;;;;6.40;73.79;96276.88;5010995;28;21984;-73
2020/12/15 05:36:59;;;;;;;6.23;4.37;;;;;;;6.20;74.61;96277.81;5010362;28;20198;-72
2020/12/15 05:39:27;;;;;;;6.73;4.23;;;;;;;6.21;74.56;96274.22;5011262;28;20186;-72
2020/12/15 05:42:06;;;;;;;5.27;4.13;;;;;;;6.25;74.34;96277.97;5010351;28;20199;-72
2020/12/15 05:44:35;;;;;;;7.00;4.30;;;;;;;6.32;74.02;96279.72;5001362;28;20184;-72
2020/12/15 05:47:08;;;;;;;7.37;4.50;;;;;;;6.41;73.85;96270.66;5011330;28;20215;-72
2020/12/15 05:49:39;;;;;;;7.07;5.10;;;;;;;6.60;72.47;96262.69;5002862;28;20190;-72
2020/12/15 05:52:07;;;;;;;7.03;5.10;;;;;;;6.51;73.38;96261.38;5010904;28;20187;-73
2020/12/15 05:54:33;;;;;;;11.20;5.40;;;;;;;6.28;74.37;96268.16;5010357;28;20539;-73
2020/12/15 05:57:01;;;;;;;6.20;4.90;;;;;;;6.12;75.56;96283.28;5011439;28;20194;-74
2020/12/15 05:59:27;;;;;;;6.53;5.27;;;;;;;6.24;75.48;96273.00;5009599;28;20192;-72
2020/12/15 06:01:54;;;;;;;8.53;5.47;;;;;;;6.25;75.25;96274.56;5010111;28;20305;-72
2020/12/15 06:04:21;;;;;;;8.63;5.63;;;;;;;6.18;75.65;96286.84;5011058;28;20179;-74
2020/12/15 06:06:47;;;;;;;7.80;5.90;;;;;;;6.34;75.27;96283.72;5012397;28;20718;-74
2020/12/15 06:09:17;;;;;;;8.27;5.77;;;;;;;6.17;75.75;96288.66;5013967;28;20195;-72
2020/12/15 06:11:44;;;;;;;6.00;5.37;;;;;;;6.19;76.19;96293.63;5013396;28;20274;-72
2020/12/15 06:14:12;;;;;;;8.20;6.10;;;;;;;6.18;76.62;96292.84;5011620;28;20191;-71
2020/12/15 06:16:39;;;;;;;7.60;6.27;;;;;;;6.17;76.91;96291.25;5009513;28;20202;-71
2020/12/15 06:19:12;;;;;;;8.40;6.30;;;;;;;5.88;78.56;96297.03;5005975;28;20274;-73
2020/12/15 06:21:55;;;;;;;7.63;5.63;;;;;;;5.90;78.69;96289.03;5005512;28;20178;-73
2020/12/15 06:24:38;;;;;;;7.23;6.27;;;;;;;6.24;77.34;96291.22;5006584;28;20640;-73
2020/12/15 06:27:05;;;;;;;8.00;6.33;;;;;;;6.06;78.01;96291.94;5004197;28;20231;-72
2020/12/15 06:29:35;;;;;;;10.73;6.53;;;;;;;6.06;78.11;96297.13;5008187;28;20649;-73
2020/12/15 06:32:03;;;;;;;7.47;6.30;;;;;;;5.90;78.74;96294.22;5002336;28;20258;-73
2020/12/15 06:34:30;;;;;;;7.83;6.33;;;;;;;5.74;79.59;96298.09;5028398;28;20179;-76
2020/12/15 06:36:57;;;;;;;8.83;5.80;;;;;;;5.73;79.13;96299.09;5013799;28;20265;-76
2020/12/15 06:39:28;;;;;;;7.17;6.07;;;;;;;5.87;78.81;96295.44;5006969;28;20186;-76
2020/12/15 06:41:57;;;;;;;7.43;5.73;;;;;;;6.09;77.58;96296.69;5013418;28;20528;-76
2020/12/15 06:44:34;;;;;;;9.00;6.70;;;;;;;6.12;77.59;96300.69;5012390;28;20183;-76
2020/12/15 06:47:01;;;;;;;10.37;6.13;;;;;;;6.07;78.46;96290.13;5017250;28;20218;-76
2020/12/15 06:49:29;;;;;;;7.40;6.57;;;;;;;6.07;78.90;96295.34;5012899;28;20643;-77
2020/12/15 06:52:03;;;;;;;8.40;6.30;;;;;;;5.86;79.73;96304.22;5013076;28;20183;-77
2020/12/15 06:54:31;;;;;;;8.90;6.57;;;;;;;5.91;79.17;96301.81;5013587;28;20643;-78
2020/12/15 06:57:08;;;;;;;8.50;6.67;;;;;;;5.90;79.45;96307.25;5023938;28;20191;-78
2020/12/15 06:59:39;;;;;;;9.53;6.20;;;;;;;5.78;79.98;96309.66;5012839;28;20250;-78
2020/12/15 07:02:12;;;;;;;7.53;6.30;;;;;;;5.86;79.41;96307.59;5013541;28;20179;-79
2020/12/15 07:04:46;;;;;;;9.07;6.93;;;;;;;5.92;79.61;96305.22;5012512;28;20187;-79
2020/12/15 07:07:12;;;;;;;7.47;6.27;;;;;;;5.85;79.87;96303.41;5012689;28;20678;-76
2020/12/15 07:09:38;;;;;;;10.07;6.90;;;;;;;5.96;79.77;96302.00;5012331;28;20184;-76
2020/12/15 07:12:13;;;;;;;9.90;6.67;;;;;;;5.79;80.42;96301.66;5011860;28;20191;-78
2020/12/15 07:14:42;;;;;;;7.70;5.10;;;;;;;6.70;92.73;96309.06;5012028;28;20195;-73
2020/12/15 07:17:08;;;;;;;9.90;5.57;;;;;;;8.15;85.44;96315.22;5019158;28;20232;-75
2020/12/15 07:19:33;;;;;;;10.77;6.43;;;;;;;9.18;71.93;96315.59;5012376;28;20230;-73
2020/12/15 07:21:59;;;;;;;10.47;6.40;;;;;;;8.42;70.32;96313.03;5013169;28;20244;-73
2020/12/15 07:24:25;;;;;;;9.67;6.27;;;;;;;7.48;72.67;96312.66;5012823;28;20190;-74
2020/12/15 07:26:51;;;;;;;9.23;6.60;;;;;;;7.11;73.66;96326.72;5011741;28;20226;-74
2020/12/15 07:29:24;;;;;;;8.03;6.30;;;;;;;6.78;75.12;96328.81;5012790;28;20237;-73
2020/12/15 07:31:49;;;;;;;6.53;5.63;;;;;;;6.68;76.56;96329.31;5012870;28;20346;-73
2020/12/15 07:34:18;;;;;;;7.13;6.07;;;;;;;6.62;76.25;96333.56;5013625;28;20183;-73
2020/12/15 07:36:48;;;;;;;9.97;6.70;;;;;;;6.49;76.87;96325.84;5012591;28;20218;-76
2020/12/15 07:39:15;;;;;;;8.43;6.23;;;;;;;6.38;76.93;96334.34;5012303;28;20265;-74
2020/12/15 07:41:41;;;;;;;9.73;6.73;;;;;;;6.30;77.51;96328.59;5012469;28;20273;-74
2020/12/15 07:44:15;;;;;;;9.93;7.13;;;;;;;6.14;78.15;96343.69;5012340;28;20716;-74
2020/12/15 07:46:45;;;;;;;12.80;6.37;;;;;;;6.11;78.84;96325.13;5011461;28;20285;-75
2020/12/15 07:49:11;;;;;;;10.83;6.87;;;;;;;6.02;78.09;96334.19;5011864;28;20655;-75
2020/12/15 07:51:40;;;;;;;8.10;6.33;;;;;;;6.00;78.50;96338.78;5011382;28;20198;-74
2020/12/15 07:54:06;;;;;;;9.70;6.43;;;;;;;6.15;77.88;96340.09;5012414;28;20187;-74
2020/12/15 07:56:32;;;;;;;10.77;6.70;;;;;;;6.08;78.17;96336.72;5011639;28;20588;-78
2020/12/15 07:58:59;;;;;;;9.53;7.10;;;;;;;6.18;78.58;96339.69;5012279;28;20187;-74
2020/12/15 08:01:27;;;;;;;8.80;6.90;;;;;;;5.99;80.11;96332.78;5012043;28;20310;-74
2020/12/15 08:04:06;;;;;;;8.33;6.47;;;;;;;6.07;79.76;96339.56;5011510;28;20186;-74
2020/12/15 08:06:33;;;;;;;8.13;6.10;;;;;;;6.29;79.01;96343.44;5010645;28;20555;-78
2020/12/15 08:08:59;;;;;;;7.77;6.37;;;;;;;6.33;78.94;96343.78;5011263;28;20660;-75
2020/12/15 08:11:26;;;;;;;9.47;7.10;;;;;;;6.17;79.67;96343.28;5026688;28;20183;-75
2020/12/15 08:13:52;;;;;;;10.10;6.00;;;;;;;6.18;79.15;96336.28;5014365;28;20620;-74
2020/12/15 08:16:19;;;;;;;8.27;5.87;;;;;;;6.19;79.61;96353.47;5011598;28;20194;-75
2020/12/15 08:18:45;;;;;;;9.20;5.90;;;;;;;6.16;79.66;96348.69;5011098;28;20194;-75
2020/12/15 08:21:17;;;;;;;8.07;6.10;;;;;;;6.31;78.80;96351.78;5011212;28;20187;-75
2020/12/15 08:23:52;;;;;;;8.30;5.53;;;;;;;6.50;77.96;96350.88;5010700;28;20235;-75
2020/12/15 08:26:20;;;;;;;6.50;5.33;;;;;;;6.32;78.69;96357.81;5012146;28;20199;-75
2020/12/15 08:28:46;;;;;;;7.50;5.70;;;;;;;6.27;79.45;96358.44;5010060;28;20271;-75
2020/12/15 08:31:13;;;;;;;6.20;5.53;;;;;;;6.39;78.68;96364.56;5011897;28;20266;-74
2020/12/15 08:33:39;;;;;;;7.83;5.33;;;;;;;6.61;77.31;96367.63;5011055;28;20723;-74
2020/12/15 08:36:05;;;;;;;6.63;5.37;;;;;;;6.50;77.65;96365.69;5012189;28;20274;-74
2020/12/15 08:38:33;;;;;;;7.37;5.07;;;;;;;6.51;77.23;96372.50;5011085;28;20225;-78
2020/12/15 08:41:01;;;;;;;6.17;5.00;;;;;;;6.50;77.05;96363.91;5011190;28;20202;-75
2020/12/15 08:43:27;;;;;;;6.73;4.70;;;;;;;6.55;77.15;96373.66;5011504;28;20186;-75
2020/12/15 08:45:53;;;;;;;5.70;4.43;;;;;;;6.66;76.33;96375.59;5009847;28;20183;-74
2020/12/15 08:48:20;;;;;;;8.83;4.30;;;;;;;6.76;76.20;96377.72;5011638;28;20185;-74
2020/12/15 08:50:47;;;;;;;6.80;4.37;;;;;;;6.90;75.29;96374.81;5010225;28;20249;-75
2020/12/15 08:53:13;;;;;;;7.93;4.27;;;;;;;7.00;74.26;96377.72;5011269;28;20198;-75
2020/12/15 08:55:46;;;;;;;7.27;4.57;;;;;;;6.92;74.40;96380.59;5010837;28;20656;-75
2020/12/15 08:58:12;;;;;;;8.73;5.13;;;;;;;6.87;74.79;96375.22;5011630;28;20183;-74
2020/12/15 09:00:42;;;;;;;5.33;4.63;;;;;;;6.90;74.04;96382.63;5010349;28;20234;-74
2020/12/15 09:03:13;;;;;;;6.77;5.23;;;;;;;6.92;74.58;96385.78;5011360;28;20262;-74
2020/12/15 09:05:58;;;;;;;8.73;5.20;;;;;;;6.78;75.27;96394.75;5010729;28;20585;-74
2020/12/15 09:08:25;;;;;;;7.47;5.63;;;;;;;6.59;76.03;96399.06;5010950;28;20186;-74
2020/12/15 09:10:56;;;;;;;9.10;6.03;;;;;;;6.57;76.55;96395.09;5010068;28;20179;-74
2020/12/15 09:13:22;;;;;;;7.77;5.50;;;;;;;6.69;76.03;96407.22;5011227;28;20286;-74
2020/12/15 09:15:56;;;;;;;10.10;5.73;;;;;;;6.57;76.34;96408.91;5022362;28;20198;-73
2020/12/15 09:18:36;;;;;;;6.47;5.50;;;;;;;6.62;76.21;96400.47;5011431;28;20180;-74
2020/12/15 09:21:28;;;;;;;6.77;5.50;;;;;;;6.61;76.30;96399.66;5010795;28;20191;-74
2020/12/15 09:23:54;;;;;;;7.23;5.37;;;;;;;6.66;75.95;96399.84;4995407;28;20310;-74
2020/12/15 09:26:21;;;;;;;7.27;5.70;;;;;;;6.61;76.34;96402.28;5011353;28;20207;-74
2020/12/15 09:28:48;;;;;;;6.30;5.33;;;;;;;6.54;76.31;96388.50;4997361;28;20656;-74
2020/12/15 09:31:15;;;;;;;9.37;5.40;;;;;;;6.79;75.49;96395.53;5010644;28;20187;-74
2020/12/15 09:33:41;;;;;;;6.00;4.67;;;;;;;7.01;74.49;96388.94;4995765;28;20217;-74
2020/12/15 09:36:06;;;;;;;6.33;5.10;;;;;;;7.02;74.23;96395.75;5010960;28;20269;-74
2020/12/15 09:38:32;;;;;;;7.53;5.33;;;;;;;6.97;74.67;96388.56;5010478;28;20183;-78
2020/12/15 09:40:57;;;;;;;6.40;5.03;;;;;;;6.91;74.97;96401.66;5017892;28;20195;-75
2020/12/15 09:43:23;;;;;;;7.47;5.47;;;;;;;7.18;74.22;96394.41;5021530;28;20636;-74
2020/12/15 09:45:48;;;;;;;9.67;5.30;;;;;;;7.20;73.94;96398.38;5000688;28;20187;-74
2020/12/15 09:48:14;;;;;;;7.63;5.63;;;;;;;7.04;74.82;96401.53;5014436;28;20194;-74
2020/12/15 09:50:39;;;;;;;7.00;5.00;;;;;;;7.20;74.53;96400.19;5013671;28;20213;-76
2020/12/15 09:53:05;;;;;;;6.33;5.50;;;;;;;7.29;74.04;96401.53;5014319;28;20188;-74
2020/12/15 09:55:30;;;;;;;7.83;5.13;;;;;;;7.26;73.83;96402.75;5004115;28;20233;-78
2020/12/15 09:57:56;;;;;;;7.33;4.90;;;;;;;7.34;73.43;96404.28;5013869;28;20274;-74
2020/12/15 10:00:21;;;;;;;7.00;5.03;;;;;;;7.20;74.28;96389.75;5014256;28;20263;-74
2020/12/15 10:02:46;;;;;;;8.13;5.93;;;;;;;7.13;75.26;96392.44;5013340;28;20190;-74
2020/12/15 10:05:12;;;;;;;6.80;5.27;;;;;;;7.29;74.09;96389.28;5013933;28;20192;-75
2020/12/15 10:07:38;;;;;;;6.20;5.30;;;;;;;7.55;72.99;96397.84;5013367;28;20195;-74
2020/12/15 10:10:05;;;;;;;7.20;5.77;;;;;;;7.45;74.04;96395.75;5014632;28;20225;-74
2020/12/15 10:12:30;;;;;;;6.97;5.57;;;;;;;7.37;74.48;96399.44;5013798;28;20281;-78
2020/12/15 10:14:56;;;;;;;7.07;5.00;;;;;;;7.25;75.18;96387.31;5021123;28;20283;-75
2020/12/15 10:17:21;;;;;;;8.27;5.73;;;;;;;7.27;75.10;96390.50;5014071;28;20267;-75
2020/12/15 10:19:47;;;;;;;9.47;5.83;;;;;;;7.47;74.16;96388.50;5013245;28;20192;-75
2020/12/15 10:22:12;;;;;;;7.53;6.20;;;;;;;7.33;74.71;96387.03;5013853;28;20556;-75
2020/12/15 10:24:38;;;;;;;8.43;6.27;;;;;;;7.28;74.91;96377.25;5022333;28;20238;-75
2020/12/15 10:27:03;;;;;;;8.83;6.37;;;;;;;7.49;74.46;96382.06;5013844;28;20211;-75
2020/12/15 10:29:32;;;;;;;7.50;5.97;;;;;;;7.42;74.86;96383.94;5012931;28;20738;-78
2020/12/15 10:31:57;;;;;;;7.50;6.33;;;;;;;7.77;73.50;96378.94;5013349;28;20290;-75
2020/12/15 10:34:23;;;;;;;7.03;5.63;;;;;;;7.69;73.95;96381.06;5012249;28;20183;-75
2020/12/15 10:36:49;;;;;;;8.83;5.67;;;;;;;7.64;73.87;96379.09;5013309;28;20193;-76
2020/12/15 10:39:15;;;;;;;6.73;5.80;;;;;;;7.90;73.31;96378.78;5014129;28;20270;-75
2020/12/15 10:41:41;;;;;;;7.57;5.80;;;;;;;8.03;72.85;96388.25;5012544;28;20692;-75
2020/12/15 10:44:14;;;;;;;7.80;5.30;;;;;;;8.23;72.12;96388.00;5013991;28;20678;-75
2020/12/15 10:46:40;;;;;;;7.73;5.20;;;;;;;8.27;71.71;96392.56;5012415;28;20664;-76
2020/12/15 10:49:05;;;;;;;8.17;5.37;;;;;;;8.45;71.17;96394.38;5013678;28;20187;-72
2020/12/15 10:51:30;;;;;;;5.90;4.90;;;;;;;8.59;70.72;96387.91;5012756;28;20183;-76
2020/12/15 10:53:56;;;;;;;8.27;5.40;;;;;;;8.59;71.01;96397.56;5013215;28;20195;-73
2020/12/15 10:56:22;;;;;;;6.00;4.80;;;;;;;8.66;70.71;96398.28;5016383;28;20183;-72
2020/12/15 10:58:48;;;;;;;6.53;4.70;;;;;;;8.68;70.29;96393.63;5012019;28;20187;-72
2020/12/15 11:01:14;;;;;;;11.10;5.00;;;;;;;8.67;70.75;96397.25;5011983;28;20554;-73
2020/12/15 11:03:39;;;;;;;6.43;4.83;;;;;;;8.73;70.59;96405.00;5003151;28;20188;-73
2020/12/15 11:06:05;;;;;;;6.43;4.97;;;;;;;8.69;70.36;96395.22;5013128;28;20207;-73
2020/12/15 11:08:30;;;;;;;6.53;4.67;;;;;;;8.86;69.18;96395.38;5012882;28;20186;-77
2020/12/15 11:10:56;;;;;;;4.67;4.27;;;;;;;9.04;68.29;96397.88;5020854;28;20565;-73
2020/12/15 11:13:22;;;;;;;4.47;3.77;;;;;;;9.02;68.56;96389.50;5012953;28;20176;-73
2020/12/15 11:15:48;;;;;;;4.43;3.40;;;;;;;9.11;69.18;96390.72;5012237;28;20195;-73
2020/12/15 11:18:13;;;;;;;3.80;3.10;;;;;;;9.33;68.48;96386.53;5013257;28;20183;-74
2020/12/15 11:20:38;;;;;;;5.50;3.27;;;;;;;9.31;68.22;96391.19;5021720;28;20564;-73
2020/12/15 11:23:05;;;;;;;3.80;2.90;;;;;;;9.25;69.61;96389.47;4997562;28;20231;-73
2020/12/15 11:25:31;;;;;;;3.53;3.23;;;;;;;9.33;69.71;96389.16;5012600;28;20183;-77
2020/12/15 11:27:57;;;;;;;5.27;3.10;;;;;;;9.38;69.89;96385.84;5013251;28;20197;-74
2020/12/15 11:30:22;;;;;;;3.20;2.97;;;;;;;9.35;69.63;96392.34;5003513;28;20180;-74
2020/12/15 11:32:48;;;;;;;4.03;2.87;;;;;;;9.36;70.19;96383.44;5022780;28;20520;-74
2020/12/15 11:35:13;;;;;;;3.73;3.27;;;;;;;9.39;70.42;96390.84;5012366;28;20195;-74
2020/12/15 11:37:42;;;;;;;4.50;3.63;;;;;;;9.43;70.40;96388.56;5010958;28;20250;-74
2020/12/15 11:40:10;;;;;;;5.03;3.60;;;;;;;9.43;70.33;96383.34;5012935;28;20194;-74
2020/12/15 11:42:36;;;;;;;5.77;3.43;;;;;;;9.44;70.24;96382.31;5011736;28;20238;-74